Terminal Aerodrome Forecast
Issued by NWS

Home | Current Version | Previous Version | Text Only | Print | Product List | Glossary On
Versions: 1 2 3 4 5 6 7 8 9 10 11 12 13 14 15 16
000
FTUS42 TJSJ 300500
TAFJPS
TAF
TJPS 300533Z 3006/3106 09007KT P6SM VCSH FEW025 BKN080
     FM301400 13012KT P6SM FEW030 SCT050 SCT080 PROB30 3016/3020
      -SHRA BKN025 BKN040
     FM302330 09007KT P6SM FEW030 BKN060=

USA.gov is the U.S. government's official web portal to all federal, state and local government web resources and services.